Time;durP1;ratioP1;P1;durP2;ratioP2;P2;SDS_P1;SDS_P2;PMS_P1;PMS_P2;Temp;Humidity;BMP_temperature;BMP_pressure;BME280_temperature;BME280_humidity;BME280_pressure;Samples;Min_cycle;Max_cycle;Signal;HPM_P1;HPM_P2
2022/04/08 00:00:58;;;;;;;0.40;0.20;;;11.00;99.90;;;;;;4991310;28;20390;-75
2022/04/08 00:03:27;;;;;;;0.40;0.20;;;10.90;99.90;;;;;;4990563;28;20803;-74
2022/04/08 00:05:54;;;;;;;0.40;0.20;;;11.00;99.90;;;;;;4990914;28;20400;-73
2022/04/08 00:08:20;;;;;;;0.40;0.20;;;10.90;99.90;;;;;;4990347;28;20398;-75
2022/04/08 00:10:47;;;;;;;0.40;0.20;;;10.90;99.90;;;;;;5018367;28;20768;-75
2022/04/08 00:13:12;;;;;;;0.40;0.20;;;10.90;99.90;;;;;;5029917;28;20379;-75
2022/04/08 00:15:38;;;;;;;0.40;0.20;;;10.80;99.90;;;;;;5030038;28;20391;-73
2022/04/08 00:18:05;;;;;;;0.40;0.20;;;10.80;99.90;;;;;;5029998;28;20394;-73
2022/04/08 00:20:32;;;;;;;0.80;0.80;;;10.80;99.90;;;;;;5029352;28;20725;-73
2022/04/08 00:22:58;;;;;;;0.57;0.57;;;10.80;99.90;;;;;;5030326;28;20732;-73
2022/04/08 00:25:24;;;;;;;0.40;0.20;;;10.80;99.90;;;;;;5029660;28;20442;-76
2022/04/08 00:27:50;;;;;;;0.40;0.20;;;10.90;99.90;;;;;;5025649;28;20389;-74
2022/04/08 00:30:15;;;;;;;0.40;0.20;;;10.80;99.90;;;;;;5010559;28;20416;-73
2022/04/08 00:32:41;;;;;;;0.40;0.20;;;10.80;99.90;;;;;;5009767;28;20392;-74
2022/04/08 00:35:08;;;;;;;0.40;0.20;;;10.80;99.90;;;;;;5010121;28;20462;-73
2022/04/08 00:37:35;;;;;;;0.40;0.20;;;10.80;99.90;;;;;;5009174;28;20427;-74
2022/04/08 00:40:00;;;;;;;0.40;0.20;;;10.70;99.90;;;;;;5010405;28;20401;-74
2022/04/08 00:42:26;;;;;;;0.40;0.20;;;10.60;99.90;;;;;;5010492;28;20388;-73
2022/04/08 00:44:52;;;;;;;0.40;0.20;;;10.50;99.90;;;;;;5009328;28;20385;-73
2022/04/08 00:47:17;;;;;;;0.40;0.20;;;10.50;99.90;;;;;;5010087;28;20385;-73
2022/04/08 00:49:44;;;;;;;0.40;0.20;;;10.40;99.90;;;;;;5009468;28;20389;-74
2022/04/08 00:52:10;;;;;;;0.40;0.20;;;10.40;99.90;;;;;;5010188;28;20393;-73
2022/04/08 00:54:37;;;;;;;0.40;0.20;;;10.40;99.90;;;;;;5010250;28;20420;-73
2022/04/08 00:57:04;;;;;;;0.40;0.20;;;10.40;99.90;;;;;;5009867;28;20618;-73
2022/04/08 00:59:30;;;;;;;0.40;0.20;;;10.30;99.90;;;;;;5010318;28;20707;-73
2022/04/08 01:01:59;;;;;;;0.40;0.20;;;10.30;99.90;;;;;;5009517;28;20766;-73
2022/04/08 01:04:27;;;;;;;0.40;0.20;;;10.20;99.90;;;;;;5010229;28;20373;-72
2022/04/08 01:06:53;;;;;;;0.40;0.20;;;10.20;99.90;;;;;;5024867;28;20401;-75
2022/04/08 01:09:19;;;;;;;0.40;0.20;;;10.10;99.90;;;;;;5011430;28;20884;-73
2022/04/08 01:11:44;;;;;;;0.40;0.20;;;10.20;99.90;;;;;;5033480;28;20407;-72
2022/04/08 01:14:12;;;;;;;0.40;0.20;;;10.30;99.90;;;;;;5032692;28;20415;-73
2022/04/08 01:16:38;;;;;;;0.40;0.20;;;10.20;99.90;;;;;;5033877;28;20386;-73
2022/04/08 01:19:04;;;;;;;0.40;0.20;;;10.20;99.90;;;;;;5032391;28;20457;-74
2022/04/08 01:21:31;;;;;;;0.40;0.20;;;10.20;99.90;;;;;;5033534;28;20422;-72
2022/04/08 01:23:58;;;;;;;0.60;0.60;;;10.20;99.90;;;;;;5033100;28;20391;-73
2022/04/08 01:26:24;;;;;;;0.40;0.20;;;10.30;99.90;;;;;;5032198;28;20438;-73
2022/04/08 01:28:54;;;;;;;0.40;0.30;;;10.30;99.90;;;;;;5032964;28;20383;-73
2022/04/08 01:31:21;;;;;;;0.40;0.20;;;10.40;99.90;;;;;;5032269;28;20506;-73
2022/04/08 01:33:46;;;;;;;0.40;0.20;;;10.30;99.90;;;;;;5032642;28;20482;-72
2022/04/08 01:36:12;;;;;;;0.40;0.20;;;10.30;99.90;;;;;;5033075;28;20466;-73
2022/04/08 01:38:38;;;;;;;0.70;0.70;;;10.30;99.90;;;;;;5031907;28;20943;-73
2022/04/08 01:41:03;;;;;;;0.40;0.20;;;10.40;99.90;;;;;;5033114;28;20879;-72
2022/04/08 01:43:29;;;;;;;0.40;0.20;;;10.30;99.90;;;;;;5032103;28;20913;-73
2022/04/08 01:45:55;;;;;;;0.40;0.20;;;10.30;99.90;;;;;;5033322;28;20375;-73
2022/04/08 01:48:20;;;;;;;0.40;0.20;;;10.30;99.90;;;;;;5032755;28;20386;-73
2022/04/08 01:50:46;;;;;;;0.40;0.20;;;10.30;99.90;;;;;;5031794;28;20502;-72
2022/04/08 01:53:15;;;;;;;0.40;0.20;;;10.30;99.90;;;;;;5032887;28;20391;-72
2022/04/08 01:55:41;;;;;;;0.40;0.20;;;10.10;99.90;;;;;;5030561;28;20806;-73
2022/04/08 01:58:07;;;;;;;0.40;0.20;;;10.20;99.90;;;;;;5032999;28;20466;-72
2022/04/08 02:00:32;;;;;;;0.40;0.20;;;10.20;99.90;;;;;;5032067;28;20752;-73
2022/04/08 02:02:58;;;;;;;0.70;0.70;;;10.20;99.90;;;;;;5032031;28;20379;-72
2022/04/08 02:05:24;;;;;;;0.40;0.28;;;10.20;99.90;;;;;;5032244;28;20383;-72
2022/04/08 02:07:50;;;;;;;0.40;0.20;;;10.20;99.90;;;;;;5031367;28;20483;-72
2022/04/08 02:10:15;;;;;;;0.40;0.20;;;10.10;99.90;;;;;;5022623;28;20485;-72
2022/04/08 02:12:42;;;;;;;0.40;0.30;;;10.20;99.90;;;;;;5012539;28;20437;-74
2022/04/08 02:15:08;;;;;;;0.40;0.20;;;10.20;99.90;;;;;;5012207;28;20381;-72
2022/04/08 02:17:34;;;;;;;0.40;0.20;;;10.20;99.90;;;;;;5012548;28;20424;-73
2022/04/08 02:20:00;;;;;;;0.40;0.20;;;10.20;99.90;;;;;;5011724;28;20401;-72
2022/04/08 02:22:29;;;;;;;0.80;0.80;;;10.10;99.90;;;;;;5011717;28;20459;-72
2022/04/08 02:24:56;;;;;;;0.40;0.20;;;10.10;99.90;;;;;;5010191;28;20392;-72
2022/04/08 02:27:23;;;;;;;0.40;0.30;;;10.10;99.90;;;;;;5012409;28;20392;-72
2022/04/08 02:29:49;;;;;;;0.40;0.20;;;10.00;99.90;;;;;;5010751;28;20711;-72
2022/04/08 02:32:15;;;;;;;0.40;0.20;;;10.00;99.90;;;;;;5011583;28;20504;-72
2022/04/08 02:34:40;;;;;;;0.40;0.20;;;10.10;99.90;;;;;;5011884;28;20428;-72
2022/04/08 02:37:07;;;;;;;0.40;0.20;;;10.00;99.90;;;;;;5009854;28;20413;-72
2022/04/08 02:39:33;;;;;;;0.40;0.20;;;10.00;99.90;;;;;;5011835;28;20404;-72
2022/04/08 02:41:59;;;;;;;0.40;0.20;;;10.00;99.90;;;;;;5012020;28;20381;-72
2022/04/08 02:44:24;;;;;;;0.40;0.20;;;10.00;99.90;;;;;;5011014;28;20472;-71
2022/04/08 02:46:50;;;;;;;0.40;0.20;;;10.00;99.90;;;;;;5011865;28;20884;-72
2022/04/08 02:49:16;;;;;;;0.40;0.20;;;9.90;99.90;;;;;;5011120;28;20706;-72
2022/04/08 02:51:42;;;;;;;0.40;0.20;;;9.90;99.90;;;;;;5011883;28;20895;-72
2022/04/08 02:54:07;;;;;;;0.40;0.20;;;9.80;99.90;;;;;;5011848;28;20741;-73
2022/04/08 02:56:33;;;;;;;0.40;0.20;;;9.80;99.90;;;;;;5011192;28;20456;-72
2022/04/08 02:59:00;;;;;;;0.40;0.20;;;9.70;99.90;;;;;;5011654;28;20480;-72
2022/04/08 03:01:27;;;;;;;0.40;0.20;;;9.70;99.90;;;;;;5009591;28;20408;-72
2022/04/08 03:03:52;;;;;;;0.40;0.20;;;9.60;99.90;;;;;;5011504;28;20396;-72
2022/04/08 03:06:18;;;;;;;0.40;0.20;;;9.60;99.90;;;;;;5011563;28;20400;-73
2022/04/08 03:08:44;;;;;;;0.40;0.20;;;9.60;99.90;;;;;;5010518;28;21012;-72
2022/04/08 03:11:10;;;;;;;0.40;0.20;;;9.50;99.90;;;;;;5028212;28;20414;-74
2022/04/08 03:13:36;;;;;;;0.40;0.20;;;9.40;99.90;;;;;;5030555;28;20391;-72
2022/04/08 03:16:02;;;;;;;0.40;0.20;;;9.40;99.90;;;;;;5031004;28;20383;-72
2022/04/08 03:18:28;;;;;;;0.40;0.20;;;9.30;99.90;;;;;;5030874;28;20410;-72
2022/04/08 03:20:54;;;;;;;0.40;0.20;;;9.30;99.90;;;;;;5028970;28;20384;-72
2022/04/08 03:23:19;;;;;;;0.40;0.20;;;9.20;99.90;;;;;;5031121;28;20386;-72
2022/04/08 03:25:45;;;;;;;0.40;0.20;;;9.10;99.90;;;;;;5030222;28;20775;-72
2022/04/08 03:28:11;;;;;;;0.40;0.20;;;9.10;99.90;;;;;;5030827;28;20387;-72
2022/04/08 03:30:37;;;;;;;0.40;0.20;;;9.20;99.90;;;;;;5030874;28;20415;-72
2022/04/08 03:33:02;;;;;;;0.40;0.20;;;9.20;99.90;;;;;;5029927;28;20449;-72
2022/04/08 03:35:28;;;;;;;0.40;0.20;;;9.20;99.90;;;;;;5030699;28;20454;-72
2022/04/08 03:37:54;;;;;;;0.40;0.20;;;9.20;99.90;;;;;;5030169;28;20437;-72
2022/04/08 03:40:19;;;;;;;0.40;0.20;;;9.20;99.90;;;;;;5046266;28;20387;-71
2022/04/08 03:42:45;;;;;;;0.40;0.20;;;9.30;99.90;;;;;;5030851;28;20387;-72
2022/04/08 03:45:13;;;;;;;0.40;0.20;;;9.30;99.90;;;;;;5030602;28;20411;-72
2022/04/08 03:47:39;;;;;;;0.40;0.20;;;9.30;99.90;;;;;;5031136;28;20395;-72
2022/04/08 03:50:05;;;;;;;0.40;0.20;;;9.30;99.90;;;;;;5029844;28;20418;-72
2022/04/08 03:52:32;;;;;;;0.40;0.20;;;9.30;99.90;;;;;;5031085;28;20391;-72
2022/04/08 03:55:02;;;;;;;0.40;0.20;;;9.30;99.90;;;;;;5030473;28;20538;-73
2022/04/08 03:57:28;;;;;;;0.40;0.20;;;9.30;99.90;;;;;;5030978;28;20438;-71
2022/04/08 03:59:55;;;;;;;0.55;0.55;;;9.30;99.90;;;;;;5031113;28;20395;-71
2022/04/08 04:02:21;;;;;;;0.40;0.20;;;9.40;99.90;;;;;;5029690;28;20437;-72
2022/04/08 04:04:47;;;;;;;0.40;0.20;;;9.30;99.90;;;;;;5029958;28;20852;-71
2022/04/08 04:07:12;;;;;;;0.40;0.20;;;9.30;99.90;;;;;;5029174;28;20403;-72
2022/04/08 04:09:38;;;;;;;0.40;0.20;;;9.40;99.90;;;;;;5025668;28;20554;-72
2022/04/08 04:12:04;;;;;;;0.40;0.20;;;9.40;99.90;;;;;;5010603;28;20435;-72
2022/04/08 04:14:30;;;;;;;0.40;0.20;;;9.40;99.90;;;;;;5010194;28;20389;-72
2022/04/08 04:16:56;;;;;;;0.40;0.20;;;9.40;99.90;;;;;;5011065;28;20447;-71
2022/04/08 04:19:21;;;;;;;0.40;0.20;;;9.30;99.90;;;;;;5010218;28;20389;-72
2022/04/08 04:21:49;;;;;;;0.40;0.20;;;9.30;99.90;;;;;;5011273;28;20821;-71
2022/04/08 04:24:14;;;;;;;0.40;0.20;;;9.10;99.90;;;;;;5010986;28;20381;-72
2022/04/08 04:26:40;;;;;;;0.40;0.20;;;9.20;99.90;;;;;;5009943;28;20411;-72
2022/04/08 04:29:06;;;;;;;0.40;0.20;;;9.20;99.90;;;;;;5010672;28;20392;-72
2022/04/08 04:31:32;;;;;;;0.40;0.20;;;9.30;99.90;;;;;;5009988;28;20413;-72
2022/04/08 04:33:57;;;;;;;0.40;0.20;;;9.20;99.90;;;;;;5009700;28;20403;-72
2022/04/08 04:36:23;;;;;;;0.40;0.30;;;9.10;99.90;;;;;;5009409;28;20963;-72
2022/04/08 04:38:49;;;;;;;0.40;0.20;;;9.20;99.90;;;;;;5010225;28;20968;-72
2022/04/08 04:41:15;;;;;;;0.40;0.20;;;9.20;99.90;;;;;;5010741;28;20381;-72
2022/04/08 04:43:41;;;;;;;0.40;0.20;;;9.30;99.90;;;;;;5009857;28;20435;-72
2022/04/08 04:46:07;;;;;;;0.40;0.20;;;9.30;99.90;;;;;;5013584;28;20479;-72
2022/04/08 04:48:32;;;;;;;0.40;0.20;;;9.30;99.90;;;;;;5014477;28;20428;-71
2022/04/08 04:50:58;;;;;;;0.40;0.20;;;9.20;99.90;;;;;;5013622;28;21003;-72
2022/04/08 04:53:24;;;;;;;0.40;0.20;;;9.20;99.90;;;;;;5014733;28;20384;-72
2022/04/08 04:55:50;;;;;;;0.40;0.20;;;9.10;99.90;;;;;;5013988;28;20412;-72
2022/04/08 04:58:15;;;;;;;0.40;0.20;;;9.10;99.90;;;;;;5014246;28;20424;-73
2022/04/08 05:00:41;;;;;;;0.40;0.20;;;9.00;99.90;;;;;;5016189;28;20384;-74
2022/04/08 05:03:08;;;;;;;0.40;0.20;;;9.00;99.90;;;;;;5030844;28;20375;-74
2022/04/08 05:05:35;;;;;;;0.40;0.20;;;8.90;99.90;;;;;;5034138;28;20437;-74
2022/04/08 05:08:04;;;;;;;0.40;0.20;;;8.90;99.90;;;;;;5021312;28;20432;-75
2022/04/08 05:10:33;;;;;;;0.40;0.20;;;8.80;99.90;;;;;;5023480;28;20825;-75
2022/04/08 05:13:02;;;;;;;0.40;0.20;;;8.70;99.90;;;;;;5011865;28;20399;-75
2022/04/08 05:15:32;;;;;;;0.40;0.20;;;8.70;99.90;;;;;;5026225;28;20867;-75
2022/04/08 05:17:58;;;;;;;2.30;0.90;;;8.70;99.90;;;;;;5016735;28;20387;-76
2022/04/08 05:20:24;;;;;;;0.40;0.20;;;8.70;99.90;;;;;;5008612;28;20487;-76
2022/04/08 05:22:49;;;;;;;0.40;0.20;;;8.80;99.90;;;;;;5008846;28;20480;-74
2022/04/08 05:25:15;;;;;;;0.40;0.20;;;8.80;99.90;;;;;;5004255;28;20484;-75
2022/04/08 05:27:42;;;;;;;0.40;0.20;;;8.80;99.90;;;;;;5009564;28;20461;-75
2022/04/08 05:30:13;;;;;;;0.40;0.20;;;8.80;99.90;;;;;;5009640;28;20496;-75
2022/04/08 05:32:42;;;;;;;0.40;0.20;;;8.80;99.90;;;;;;5012084;28;20909;-75
2022/04/08 05:35:08;;;;;;;0.50;0.50;;;8.80;99.90;;;;;;5009225;28;20407;-76
2022/04/08 05:37:42;;;;;;;0.40;0.20;;;8.90;99.90;;;;;;5010139;28;20542;-72
2022/04/08 05:40:10;;;;;;;0.40;0.20;;;8.80;99.90;;;;;;5012943;28;20403;-73
2022/04/08 05:42:36;;;;;;;0.40;0.30;;;8.80;99.90;;;;;;5012726;28;20412;-72
2022/04/08 05:45:03;;;;;;;0.40;0.20;;;9.00;99.90;;;;;;5013160;28;21057;-72
2022/04/08 05:47:31;;;;;;;0.40;0.20;;;8.90;99.90;;;;;;5012412;28;20394;-72
2022/04/08 05:50:00;;;;;;;0.40;0.20;;;8.90;99.90;;;;;;5028819;28;20456;-72
2022/04/08 05:52:26;;;;;;;0.40;0.30;;;8.90;99.90;;;;;;5012548;28;20416;-72
2022/04/08 05:54:52;;;;;;;0.40;0.30;;;9.00;99.90;;;;;;5012412;28;20443;-72
2022/04/08 05:57:21;;;;;;;0.40;0.30;;;9.00;99.90;;;;;;5010673;28;20865;-73
2022/04/08 05:59:47;;;;;;;0.40;0.20;;;9.00;99.90;;;;;;5013261;28;20472;-72
2022/04/08 06:02:13;;;;;;;0.40;0.20;;;9.00;99.90;;;;;;5013247;28;20804;-72
2022/04/08 06:04:39;;;;;;;0.40;0.20;;;9.10;99.90;;;;;;5012381;28;20416;-72
2022/04/08 06:07:05;;;;;;;0.40;0.20;;;8.90;99.90;;;;;;5013066;28;20436;-72
2022/04/08 06:09:32;;;;;;;0.40;0.20;;;8.90;99.90;;;;;;5015991;28;20454;-72
2022/04/08 06:11:58;;;;;;;0.40;0.20;;;8.90;99.90;;;;;;5032951;28;20403;-71
2022/04/08 06:14:26;;;;;;;0.40;0.20;;;8.90;99.90;;;;;;5031254;28;20422;-71
2022/04/08 06:16:52;;;;;;;0.40;0.20;;;9.00;99.90;;;;;;5031798;28;20466;-71
2022/04/08 06:19:17;;;;;;;0.40;0.20;;;9.00;99.90;;;;;;5032267;28;20487;-71
2022/04/08 06:21:43;;;;;;;0.40;0.20;;;8.90;99.90;;;;;;5031785;28;20544;-71
2022/04/08 06:24:10;;;;;;;0.40;0.20;;;8.80;99.90;;;;;;5032353;28;20392;-71
2022/04/08 06:26:36;;;;;;;0.40;0.20;;;8.80;99.90;;;;;;5047691;28;20437;-71
2022/04/08 06:29:04;;;;;;;0.40;0.20;;;8.90;99.90;;;;;;5031760;28;20416;-71
2022/04/08 06:31:32;;;;;;;0.40;0.20;;;8.80;99.90;;;;;;5032575;28;20407;-70
2022/04/08 06:34:00;;;;;;;0.40;0.20;;;8.70;99.90;;;;;;5031138;28;20476;-71
2022/04/08 06:36:27;;;;;;;0.40;0.20;;;8.80;99.90;;;;;;5031972;28;20440;-71
2022/04/08 06:38:52;;;;;;;0.40;0.20;;;8.80;99.90;;;;;;5031045;28;20947;-70
2022/04/08 06:41:19;;;;;;;0.40;0.25;;;8.80;99.90;;;;;;5032348;28;20375;-71
2022/04/08 06:43:44;;;;;;;0.40;0.20;;;8.80;99.90;;;;;;5032214;28;20740;-71
2022/04/08 06:46:11;;;;;;;0.40;0.20;;;8.80;99.90;;;;;;5031721;28;20387;-72
2022/04/08 06:48:37;;;;;;;0.40;0.20;;;8.60;99.90;;;;;;5032448;28;20764;-71
2022/04/08 06:51:04;;;;;;;0.40;0.20;;;8.60;99.90;;;;;;5031282;28;20418;-72
2022/04/08 06:53:30;;;;;;;0.40;0.20;;;8.60;99.90;;;;;;5032079;28;20466;-72
2022/04/08 06:55:56;;;;;;;0.40;0.20;;;8.70;99.90;;;;;;5031261;28;20379;-72
2022/04/08 06:58:26;;;;;;;0.40;0.20;;;8.70;99.90;;;;;;5031945;28;20380;-72
2022/04/08 07:00:52;;;;;;;0.40;0.20;;;8.70;99.90;;;;;;5031997;28;20395;-71
2022/04/08 07:03:19;;;;;;;0.40;0.20;;;8.70;99.90;;;;;;5029839;28;20371;-72
2022/04/08 07:05:45;;;;;;;0.40;0.20;;;8.70;99.90;;;;;;5031778;28;20383;-71
2022/04/08 07:08:11;;;;;;;0.40;0.20;;;8.70;99.90;;;;;;5030417;28;20501;-71
2022/04/08 07:10:40;;;;;;;0.40;0.20;;;8.60;99.90;;;;;;5030331;28;20502;-72
2022/04/08 07:13:07;;;;;;;0.40;0.30;;;8.70;99.90;;;;;;5030948;28;20422;-72
2022/04/08 07:15:33;;;;;;;0.40;0.20;;;8.70;99.90;;;;;;5031394;28;20391;-72
2022/04/08 07:17:59;;;;;;;0.40;0.20;;;8.80;99.90;;;;;;5031500;28;20387;-73
2022/04/08 07:20:26;;;;;;;0.40;0.20;;;8.80;99.90;;;;;;5030754;28;20390;-73
2022/04/08 07:22:52;;;;;;;0.40;0.20;;;8.80;99.90;;;;;;5031159;28;20387;-72
2022/04/08 07:25:19;;;;;;;0.40;0.20;;;8.70;99.90;;;;;;5030476;28;20440;-72
2022/04/08 07:27:52;;;;;;;0.40;0.20;;;8.70;99.90;;;;;;5031433;28;20740;-73
2022/04/08 07:30:20;;;;;;;0.40;0.20;;;8.70;99.90;;;;;;5030509;28;20928;-73
2022/04/08 07:32:48;;;;;;;0.40;0.20;;;8.80;99.90;;;;;;5031331;28;20383;-73
2022/04/08 07:35:14;;;;;;;0.40;0.22;;;8.70;99.90;;;;;;5031489;28;20713;-73
2022/04/08 07:37:40;;;;;;;0.40;0.20;;;8.70;99.90;;;;;;5030146;28;20472;-73
2022/04/08 07:40:10;;;;;;;0.40;0.20;;;8.70;99.90;;;;;;5031337;28;20375;-73
2022/04/08 07:42:37;;;;;;;0.40;0.20;;;8.70;99.90;;;;;;5030668;28;20379;-73
2022/04/08 07:45:04;;;;;;;0.40;0.20;;;8.70;99.90;;;;;;5031303;28;20398;-73
2022/04/08 07:47:30;;;;;;;0.45;0.43;;;8.80;99.90;;;;;;5030282;28;20388;-73
2022/04/08 07:49:57;;;;;;;0.40;0.30;;;8.80;99.90;;;;;;5030727;28;20387;-73
2022/04/08 07:52:24;;;;;;;0.40;0.20;;;8.80;99.90;;;;;;5031010;28;20395;-73
2022/04/08 07:54:49;;;;;;;0.40;0.20;;;8.90;99.90;;;;;;5030148;28;20395;-73
2022/04/08 07:57:15;;;;;;;0.40;0.20;;;9.00;99.90;;;;;;5031052;28;20379;-73
2022/04/08 07:59:41;;;;;;;0.40;0.20;;;9.00;99.90;;;;;;5030066;28;20868;-73
2022/04/08 08:02:06;;;;;;;0.40;0.20;;;9.00;99.90;;;;;;5030598;28;20437;-73
2022/04/08 08:04:32;;;;;;;0.40;0.20;;;9.10;99.90;;;;;;5029637;28;20434;-73
2022/04/08 08:06:58;;;;;;;0.40;0.20;;;9.20;99.90;;;;;;5029985;28;20399;-73
2022/04/08 08:09:24;;;;;;;0.40;0.20;;;9.30;99.90;;;;;;5028528;28;20415;-72
2022/04/08 08:11:50;;;;;;;0.40;0.20;;;9.50;99.90;;;;;;5009752;28;20405;-73
2022/04/08 08:14:16;;;;;;;0.40;0.20;;;9.50;99.90;;;;;;5010239;28;20397;-73
2022/04/08 08:16:41;;;;;;;0.40;0.20;;;9.70;99.90;;;;;;5011424;28;20762;-73
2022/04/08 08:19:07;;;;;;;0.40;0.20;;;9.80;99.90;;;;;;5010339;28;20425;-72
2022/04/08 08:21:33;;;;;;;0.40;0.20;;;9.70;99.90;;;;;;5014767;28;20389;-72
2022/04/08 08:23:59;;;;;;;0.40;0.20;;;9.70;99.90;;;;;;5014118;28;20856;-72
2022/04/08 08:26:25;;;;;;;0.40;0.20;;;9.70;99.90;;;;;;5014841;28;20420;-72
2022/04/08 08:28:52;;;;;;;0.40;0.40;;;9.90;99.90;;;;;;5015531;28;20391;-72
2022/04/08 08:31:17;;;;;;;0.40;0.22;;;9.90;99.90;;;;;;5014100;28;21331;-72
2022/04/08 08:33:43;;;;;;;0.40;0.20;;;10.00;99.90;;;;;;5014910;28;20385;-72
2022/04/08 08:36:09;;;;;;;0.40;0.20;;;10.10;99.90;;;;;;5013836;28;20381;-72
2022/04/08 08:38:36;;;;;;;0.40;0.20;;;10.30;99.90;;;;;;5014843;28;20415;-72
2022/04/08 08:41:03;;;;;;;0.40;0.20;;;10.50;99.90;;;;;;5010112;28;20491;-71
2022/04/08 08:43:28;;;;;;;0.40;0.20;;;10.60;99.90;;;;;;5013780;28;21067;-71
2022/04/08 08:45:57;;;;;;;0.40;0.20;;;10.60;99.90;;;;;;5014113;28;20408;-71
2022/04/08 08:48:23;;;;;;;0.40;0.20;;;10.60;99.90;;;;;;5013794;28;20399;-72
2022/04/08 08:50:52;;;;;;;0.40;0.20;;;10.70;99.90;;;;;;5014498;28;20520;-72
2022/04/08 08:53:19;;;;;;;0.40;0.20;;;10.90;99.90;;;;;;5013686;28;20388;-72
2022/04/08 08:55:48;;;;;;;0.40;0.22;;;10.90;99.90;;;;;;5014567;28;20427;-72
2022/04/08 08:58:15;;;;;;;0.40;0.20;;;10.60;99.90;;;;;;5014638;28;20519;-72
2022/04/08 09:00:41;;;;;;;0.40;0.20;;;10.60;99.90;;;;;;5013499;28;20463;-72
2022/04/08 09:03:09;;;;;;;0.40;0.20;;;10.70;99.90;;;;;;5014311;28;20420;-72
2022/04/08 09:05:43;;;;;;;0.40;0.20;;;10.70;99.90;;;;;;5013470;28;20385;-72
2022/04/08 09:08:10;;;;;;;0.40;0.20;;;10.70;99.90;;;;;;5014393;28;20397;-72
2022/04/08 09:10:39;;;;;;;0.40;0.20;;;10.70;99.90;;;;;;5025564;28;20422;-73
2022/04/08 09:13:07;;;;;;;0.40;0.20;;;10.60;99.90;;;;;;5034123;28;20864;-72
2022/04/08 09:15:37;;;;;;;0.40;0.20;;;10.60;99.90;;;;;;5033021;28;20844;-72
2022/04/08 09:18:15;;;;;;;0.40;0.20;;;10.80;99.90;;;;;;5033860;28;20521;-72
2022/04/08 09:20:44;;;;;;;0.40;0.20;;;10.70;99.90;;;;;;5031447;28;20411;-72
2022/04/08 09:23:12;;;;;;;0.40;0.20;;;10.60;99.90;;;;;;5033829;28;20383;-72
2022/04/08 09:25:39;;;;;;;0.40;0.20;;;10.40;99.90;;;;;;5033195;28;20380;-72
2022/04/08 09:28:11;;;;;;;0.40;0.20;;;10.40;99.90;;;;;;5033491;28;20809;-72
2022/04/08 09:30:37;;;;;;;0.40;0.20;;;10.20;99.90;;;;;;5033301;28;20933;-72
2022/04/08 09:33:19;;;;;;;0.40;0.20;;;10.30;99.90;;;;;;5033216;28;20399;-72
2022/04/08 09:35:46;;;;;;;0.40;0.20;;;10.30;99.90;;;;;;5032563;28;20402;-73
2022/04/08 09:38:20;;;;;;;0.40;0.30;;;10.30;99.90;;;;;;5033058;28;20422;-73
2022/04/08 09:40:47;;;;;;;0.40;0.20;;;10.20;99.90;;;;;;5032776;28;20751;-72
2022/04/08 09:43:14;;;;;;;0.40;0.20;;;10.30;99.90;;;;;;5033228;28;20926;-72
2022/04/08 09:45:40;;;;;;;0.40;0.20;;;10.60;99.90;;;;;;5033554;28;20478;-73
2022/04/08 09:48:08;;;;;;;0.40;0.20;;;10.60;99.90;;;;;;5032760;28;20422;-72
2022/04/08 09:50:39;;;;;;;0.40;0.20;;;10.80;99.90;;;;;;5033200;28;20422;-72
2022/04/08 09:53:06;;;;;;;0.40;0.20;;;10.90;99.90;;;;;;5032444;28;20383;-74
2022/04/08 09:55:35;;;;;;;0.40;0.30;;;11.10;99.90;;;;;;5033061;28;20394;-73
2022/04/08 09:58:04;;;;;;;0.40;0.20;;;11.40;99.90;;;;;;5032455;28;20386;-73
2022/04/08 10:00:31;;;;;;;0.40;0.20;;;11.70;99.90;;;;;;5033220;28;20420;-74
2022/04/08 10:03:01;;;;;;;0.40;0.30;;;11.80;99.90;;;;;;5032970;28;20371;-71
2022/04/08 10:05:27;;;;;;;0.40;0.20;;;11.90;99.90;;;;;;5033202;28;20380;-72
2022/04/08 10:07:55;;;;;;;0.40;0.30;;;12.00;99.90;;;;;;5032803;28;20461;-75
2022/04/08 10:10:48;;;;;;;0.40;0.20;;;12.10;99.90;;;;;;5021563;28;20559;-74
2022/04/08 10:13:41;;;;;;;0.40;0.20;;;12.20;99.90;;;;;;5012269;28;20919;-72
2022/04/08 10:16:20;;;;;;;0.40;0.20;;;12.30;99.90;;;;;;5012856;28;20424;-73
2022/04/08 10:18:47;;;;;;;0.40;0.20;;;12.40;99.90;;;;;;5013009;28;20464;-71
2022/04/08 10:21:15;;;;;;;0.40;0.20;;;12.60;99.90;;;;;;5010571;28;20404;-75
2022/04/08 10:23:49;;;;;;;0.40;0.20;;;12.60;99.90;;;;;;5011642;28;20900;-72
2022/04/08 10:26:18;;;;;;;0.40;0.20;;;12.60;99.90;;;;;;5012390;28;20389;-71
2022/04/08 10:28:44;;;;;;;0.40;0.20;;;12.70;99.90;;;;;;5012812;28;20385;-73
2022/04/08 10:31:19;;;;;;;0.40;0.20;;;12.80;99.90;;;;;;5010494;28;20423;-75
2022/04/08 10:33:50;;;;;;;0.40;0.20;;;12.80;99.90;;;;;;4999344;28;20886;-71
2022/04/08 10:36:16;;;;;;;0.40;0.20;;;12.70;99.90;;;;;;5011597;28;20451;-73
2022/04/08 10:38:42;;;;;;;0.40;0.20;;;12.80;99.90;;;;;;5012081;28;20515;-72
2022/04/08 10:41:11;;;;;;;0.40;0.20;;;12.90;99.90;;;;;;5011217;28;20488;-72
2022/04/08 10:43:52;;;;;;;0.40;0.20;;;12.90;99.90;;;;;;5011101;28;20770;-73
2022/04/08 10:46:32;;;;;;;0.40;0.20;;;13.00;99.90;;;;;;5027639;28;20389;-72
2022/04/08 10:48:58;;;;;;;0.40;0.20;;;13.00;99.90;;;;;;5011319;28;20424;-72
2022/04/08 10:51:29;;;;;;;0.40;0.20;;;13.10;99.90;;;;;;5012268;28;20440;-72
2022/04/08 10:54:03;;;;;;;0.40;0.20;;;13.10;99.90;;;;;;5011795;28;20419;-71
2022/04/08 10:56:34;;;;;;;0.40;0.20;;;13.30;99.90;;;;;;5012225;28;20385;-69
2022/04/08 10:59:00;;;;;;;0.40;0.20;;;13.30;99.90;;;;;;5011595;28;20385;-71
2022/04/08 11:01:27;;;;;;;0.40;0.25;;;13.50;99.90;;;;;;5011693;28;20396;-70
2022/04/08 11:04:04;;;;;;;0.40;0.20;;;13.50;99.90;;;;;;5011428;28;20417;-70
2022/04/08 11:06:34;;;;;;;0.40;0.20;;;13.60;99.90;;;;;;5011903;28;20455;-72
2022/04/08 11:09:12;;;;;;;0.40;0.20;;;13.60;99.90;;;;;;5010914;28;21269;-72
2022/04/08 11:11:39;;;;;;;0.40;0.20;;;13.70;99.90;;;;;;4992098;28;20421;-72
2022/04/08 11:14:06;;;;;;;0.40;0.20;;;13.60;99.90;;;;;;4991393;28;20646;-71
2022/04/08 11:16:42;;;;;;;0.40;0.20;;;13.50;99.90;;;;;;4991784;28;20405;-71
2022/04/08 11:19:09;;;;;;;0.40;0.20;;;13.50;99.90;;;;;;5010965;28;20420;-71
2022/04/08 11:21:37;;;;;;;0.40;0.20;;;13.40;99.90;;;;;;5020115;28;20768;-72
2022/04/08 11:24:10;;;;;;;0.40;0.20;;;13.40;99.90;;;;;;5019797;28;20388;-73
2022/04/08 11:26:48;;;;;;;0.40;0.20;;;13.40;99.90;;;;;;5018918;28;20881;-73
2022/04/08 11:29:30;;;;;;;0.40;0.20;;;13.40;99.90;;;;;;5017387;28;20463;-72
2022/04/08 11:32:10;;;;;;;0.40;0.20;;;13.50;99.90;;;;;;5022634;28;20410;-72
2022/04/08 11:34:36;;;;;;;0.40;0.20;;;13.50;99.90;;;;;;5018738;28;20393;-72
2022/04/08 11:37:02;;;;;;;0.40;0.20;;;13.50;99.90;;;;;;5016905;28;20420;-73
2022/04/08 11:39:30;;;;;;;0.40;0.20;;;13.40;99.90;;;;;;5019342;28;20921;-72
2022/04/08 11:41:57;;;;;;;0.40;0.20;;;13.30;99.90;;;;;;5014955;28;20414;-73
2022/04/08 11:44:25;;;;;;;0.40;0.22;;;13.30;99.90;;;;;;5021318;28;20468;-71
2022/04/08 11:46:51;;;;;;;0.40;0.20;;;13.20;99.90;;;;;;5019567;28;20408;-72
2022/04/08 11:49:24;;;;;;;0.40;0.20;;;13.20;99.90;;;;;;5020570;28;20744;-71
2022/04/08 11:52:00;;;;;;;0.40;0.30;;;13.30;99.90;;;;;;5019780;28;20407;-72
2022/04/08 11:54:26;;;;;;;0.40;0.20;;;13.40;99.90;;;;;;5019831;28;20970;-70
2022/04/08 11:56:53;;;;;;;0.40;0.20;;;13.40;99.90;;;;;;5019463;28;20377;-71
2022/04/08 11:59:20;;;;;;;0.40;0.30;;;13.40;99.90;;;;;;5017673;28;20388;-72
2022/04/08 12:01:46;;;;;;;0.40;0.20;;;13.50;99.90;;;;;;5019321;28;20402;-72
2022/04/08 12:04:13;;;;;;;0.40;0.20;;;13.50;99.90;;;;;;5019753;28;20396;-70
2022/04/08 12:06:47;;;;;;;0.40;0.20;;;13.40;99.90;;;;;;5027189;28;20395;-73
2022/04/08 12:09:15;;;;;;;0.40;0.30;;;13.40;99.90;;;;;;5021316;28;20547;-76
2022/04/08 12:11:42;;;;;;;0.40;0.20;;;13.30;99.90;;;;;;5016312;28;20401;-74
2022/04/08 12:14:14;;;;;;;0.40;0.20;;;13.30;99.90;;;;;;5021008;28;20384;-74
2022/04/08 12:16:42;;;;;;;0.40;0.20;;;13.30;99.90;;;;;;5018842;28;20377;-74
2022/04/08 12:19:09;;;;;;;0.40;0.20;;;13.20;99.90;;;;;;5022232;28;20383;-74
2022/04/08 12:21:39;;;;;;;0.40;0.20;;;13.20;99.90;;;;;;5018517;28;20397;-71
2022/04/08 12:24:07;;;;;;;0.40;0.20;;;13.20;99.90;;;;;;5016967;28;20400;-71
2022/04/08 12:26:38;;;;;;;0.40;0.20;;;13.10;99.90;;;;;;5019295;28;20415;-73
2022/04/08 12:29:14;;;;;;;0.40;0.20;;;13.00;99.90;;;;;;5013796;28;20393;-71
2022/04/08 12:31:49;;;;;;;0.40;0.20;;;12.90;99.90;;;;;;5018292;28;20441;-73
2022/04/08 12:34:16;;;;;;;0.40;0.20;;;12.70;99.90;;;;;;5022064;28;20396;-74
2022/04/08 12:36:44;;;;;;;0.40;0.20;;;12.50;99.90;;;;;;5016606;28;20416;-73
2022/04/08 12:39:11;;;;;;;0.40;0.20;;;12.30;99.90;;;;;;5022630;28;20407;-74
2022/04/08 12:41:45;;;;;;;0.40;0.20;;;11.90;99.90;;;;;;5020960;28;20403;-80
2022/04/08 12:44:12;;;;;;;0.40;0.20;;;11.90;99.90;;;;;;5018753;28;20861;-84
2022/04/08 12:46:38;;;;;;;0.40;0.20;;;11.90;99.90;;;;;;5021787;28;20473;-81
2022/04/08 12:49:05;;;;;;;0.40;0.20;;;11.90;99.90;;;;;;5017478;28;20928;-81
2022/04/08 12:51:32;;;;;;;0.40;0.20;;;11.80;99.90;;;;;;5015121;28;20418;-75